createdAt,value
2022-08-01T00:00:18.207Z,3.75
2022-08-01T00:02:45.201Z,3.92
2022-08-01T00:05:12.548Z,3.50
2022-08-01T00:07:39.991Z,3.90
2022-08-01T00:10:10.308Z,3.83
2022-08-01T00:12:38.193Z,3.85
2022-08-01T00:15:07.286Z,4.10
2022-08-01T00:17:34.795Z,3.63
2022-08-01T00:20:03.616Z,4.40
2022-08-01T00:22:32.648Z,4.10
2022-08-01T00:24:59.807Z,3.63
2022-08-01T00:27:26.979Z,3.90
2022-08-01T00:30:13.673Z,3.70
2022-08-01T00:32:41.385Z,3.58
2022-08-01T00:35:08.690Z,3.63
2022-08-01T00:37:35.675Z,3.63
2022-08-01T00:40:02.714Z,3.60
2022-08-01T00:42:30.876Z,3.80
2022-08-01T00:44:57.967Z,3.55
2022-08-01T00:47:25.029Z,3.80
2022-08-01T00:49:52.088Z,3.67
2022-08-01T00:52:19.346Z,3.55
2022-08-01T00:54:46.591Z,3.97
2022-08-01T00:57:15.181Z,3.67
2022-08-01T00:59:42.382Z,4.00
2022-08-01T01:02:14.972Z,3.60
2022-08-01T01:04:42.811Z,3.63
2022-08-01T01:07:18.703Z,3.40
2022-08-01T01:10:08.608Z,4.00
2022-08-01T01:12:48.149Z,3.35
2022-08-01T01:15:38.135Z,3.40
2022-08-01T01:18:12.607Z,3.53
2022-08-01T01:20:43.919Z,3.20
2022-08-01T01:23:29.136Z,3.90
2022-08-01T01:26:19.168Z,3.80
2022-08-01T01:29:10.472Z,3.53
2022-08-01T01:31:44.398Z,4.43
2022-08-01T01:34:14.920Z,4.55
2022-08-01T01:36:44.638Z,4.43
2022-08-01T01:39:15.189Z,4.40
2022-08-01T01:41:44.458Z,4.65
2022-08-01T01:44:12.335Z,4.07
2022-08-01T01:46:41.029Z,4.30
2022-08-01T01:49:11.479Z,4.95
2022-08-01T01:51:40.864Z,4.43
2022-08-01T01:54:09.590Z,4.50
2022-08-01T01:56:49.574Z,4.05
2022-08-01T01:59:25.620Z,4.45
2022-08-01T02:02:06.174Z,4.38
2022-08-01T02:04:37.325Z,3.85
2022-08-01T02:07:06.906Z,4.68
2022-08-01T02:09:35.692Z,4.00
2022-08-01T02:12:08.422Z,4.30
2022-08-01T02:14:57.120Z,4.45
2022-08-01T02:17:25.838Z,4.32
2022-08-01T02:19:55.076Z,4.40
2022-08-01T02:22:35.324Z,4.70
2022-08-01T02:25:15.437Z,4.28
2022-08-01T02:27:51.182Z,4.10
2022-08-01T02:30:19.041Z,4.47
2022-08-01T02:32:48.651Z,4.78
2022-08-01T02:35:27.621Z,4.32
2022-08-01T02:37:56.946Z,4.30
2022-08-01T02:40:25.140Z,4.60
2022-08-01T02:42:55.721Z,4.82
2022-08-01T02:45:26.781Z,4.80
2022-08-01T02:48:00.223Z,5.05
2022-08-01T02:50:27.864Z,4.45
2022-08-01T02:52:56.390Z,4.50
2022-08-01T02:55:24.838Z,4.15
2022-08-01T02:57:56.833Z,4.35
2022-08-01T03:00:29.561Z,4.53
2022-08-01T03:02:58.099Z,4.60
2022-08-01T03:05:26.459Z,4.47
2022-08-01T03:07:56.465Z,3.78
2022-08-01T03:10:31.919Z,4.63
2022-08-01T03:13:01.530Z,4.28
2022-08-01T03:15:31.603Z,4.38
2022-08-01T03:18:01.973Z,4.50
2022-08-01T03:20:31.007Z,4.30
2022-08-01T03:23:01.094Z,4.05
2022-08-01T03:25:30.130Z,4.20
2022-08-01T03:28:00.656Z,4.72
2022-08-01T03:30:29.220Z,4.47
2022-08-01T03:32:56.618Z,4.40
2022-08-01T03:35:27.261Z,3.95
2022-08-01T03:40:55.158Z,4.78
2022-08-01T03:43:34.177Z,4.78
2022-08-01T03:46:09.152Z,4.05
2022-08-01T03:48:40.998Z,3.90
2022-08-01T03:51:09.907Z,4.03
2022-08-01T03:53:41.172Z,3.70
2022-08-01T03:56:10.805Z,4.07
2022-08-01T03:58:40.868Z,3.83
2022-08-01T04:01:15.948Z,3.80
2022-08-01T04:03:44.618Z,3.50
2022-08-01T04:06:11.857Z,3.42
2022-08-01T04:08:39.987Z,3.58
2022-08-01T04:11:08.781Z,3.33
2022-08-01T04:13:37.349Z,3.55
2022-08-01T04:16:05.870Z,3.80
2022-08-01T04:18:33.367Z,3.05
2022-08-01T04:21:00.463Z,4.22
2022-08-01T04:23:29.710Z,4.20
2022-08-01T04:25:58.533Z,4.40
2022-08-01T04:28:25.943Z,3.58
2022-08-01T04:31:01.861Z,3.10
2022-08-01T04:33:31.258Z,3.53
2022-08-01T04:36:04.815Z,3.28
2022-08-01T04:38:37.886Z,3.70
2022-08-01T04:41:08.450Z,3.05
2022-08-01T04:43:38.202Z,3.72
2022-08-01T04:46:06.958Z,3.15
2022-08-01T04:48:37.275Z,3.60
2022-08-01T04:51:04.725Z,3.75
2022-08-01T04:53:33.483Z,3.40
2022-08-01T04:56:00.643Z,3.78
2022-08-01T04:58:27.656Z,3.55
2022-08-01T05:00:54.610Z,3.55
2022-08-01T05:03:21.625Z,3.90
2022-08-01T05:05:48.607Z,3.63
2022-08-01T05:08:15.592Z,3.22
2022-08-01T05:10:42.561Z,3.25
2022-08-01T05:13:10.140Z,3.47
2022-08-01T05:15:40.095Z,3.75
2022-08-01T05:18:07.916Z,3.40
2022-08-01T05:20:35.853Z,3.10
2022-08-01T05:23:03.206Z,3.40
2022-08-01T05:25:53.107Z,3.53
2022-08-01T05:28:19.191Z,4.10
2022-08-01T05:30:46.705Z,3.63
2022-08-01T05:33:13.752Z,3.95
2022-08-01T05:35:48.559Z,4.00
2022-08-01T05:38:17.066Z,4.38
2022-08-01T05:40:44.085Z,3.85
2022-08-01T05:43:11.102Z,4.30
2022-08-01T05:45:38.119Z,3.83
2022-08-01T05:48:05.279Z,3.90
2022-08-01T05:50:33.673Z,3.67
2022-08-01T05:53:00.638Z,3.47
2022-08-01T05:55:27.638Z,3.17
2022-08-01T05:57:54.557Z,2.85
2022-08-01T06:00:21.731Z,3.10
2022-08-01T06:02:48.771Z,2.95
2022-08-01T06:05:16.719Z,2.80
2022-08-01T06:07:43.779Z,3.13
2022-08-01T06:10:11.606Z,2.60
2022-08-01T06:12:38.762Z,2.92
2022-08-01T06:15:07.171Z,2.60
2022-08-01T06:17:34.422Z,2.55
2022-08-01T06:20:01.442Z,2.40
2022-08-01T06:22:28.883Z,2.17
2022-08-01T06:24:55.904Z,2.50
2022-08-01T06:27:22.959Z,2.30
2022-08-01T06:29:51.339Z,2.20
2022-08-01T06:32:27.405Z,2.40
2022-08-01T06:34:56.098Z,2.53
2022-08-01T06:37:24.244Z,2.28
2022-08-01T06:39:51.313Z,2.72
2022-08-01T06:42:18.816Z,3.25
2022-08-01T06:44:46.459Z,4.35
2022-08-01T06:47:13.934Z,3.28
2022-08-01T06:49:40.932Z,2.65
2022-08-01T06:52:08.375Z,2.67
2022-08-01T06:54:35.741Z,2.85
2022-08-01T06:57:06.686Z,2.63
2022-08-01T06:59:33.934Z,2.55
2022-08-01T07:02:02.319Z,3.05
2022-08-01T07:04:29.478Z,2.80
2022-08-01T07:06:57.150Z,2.80
2022-08-01T07:09:24.243Z,2.58
2022-08-01T07:11:53.517Z,2.55
2022-08-01T07:14:21.758Z,2.67
2022-08-01T07:16:49.215Z,3.30
2022-08-01T07:19:16.276Z,3.00
2022-08-01T07:21:45.227Z,2.58
2022-08-01T07:24:15.120Z,2.80
2022-08-01T07:26:47.807Z,2.72
2022-08-01T07:29:22.876Z,2.60
2022-08-01T07:31:49.815Z,2.58
2022-08-01T07:34:16.788Z,3.30
2022-08-01T07:36:43.891Z,3.20
2022-08-01T07:39:10.927Z,3.10
2022-08-01T07:41:52.778Z,2.63
2022-08-01T07:44:24.892Z,2.63
2022-08-01T07:46:56.622Z,2.63
2022-08-01T07:49:23.708Z,2.75
2022-08-01T07:52:03.263Z,2.50
2022-08-01T07:54:33.505Z,2.30
2022-08-01T07:57:02.452Z,2.58
2022-08-01T07:59:29.522Z,2.38
2022-08-01T08:01:56.600Z,2.10
2022-08-01T08:04:23.652Z,2.60
2022-08-01T08:06:50.748Z,2.30
2022-08-01T08:09:17.701Z,2.55
2022-08-01T08:11:47.784Z,2.30
2022-08-01T08:14:16.287Z,2.40
2022-08-01T08:16:44.352Z,2.10
2022-08-01T08:19:12.385Z,1.85
2022-08-01T08:21:39.568Z,2.20
2022-08-01T08:24:26.716Z,2.35
2022-08-01T08:26:59.510Z,2.20
2022-08-01T08:29:28.180Z,2.03
2022-08-01T08:31:58.730Z,2.30
2022-08-01T08:34:27.405Z,2.47
2022-08-01T08:36:56.524Z,2.30
2022-08-01T08:39:24.297Z,2.90
2022-08-01T08:41:51.577Z,2.50
2022-08-01T08:44:19.673Z,2.20
2022-08-01T08:46:52.286Z,2.50
2022-08-01T08:49:25.376Z,2.70
2022-08-01T08:51:53.983Z,2.25
2022-08-01T08:54:31.160Z,2.22
2022-08-01T08:57:01.200Z,2.65
2022-08-01T08:59:29.441Z,2.80
2022-08-01T09:01:57.606Z,2.75
2022-08-01T09:04:26.769Z,2.60
2022-08-01T09:06:56.952Z,2.60
2022-08-01T09:09:24.731Z,2.38
2022-08-01T09:11:56.694Z,2.45
2022-08-01T09:14:28.422Z,2.53
2022-08-01T09:17:09.858Z,2.30
2022-08-01T09:19:48.678Z,2.38
2022-08-01T09:22:24.800Z,2.40
2022-08-01T09:25:07.087Z,2.30
2022-08-01T09:27:35.642Z,2.40
2022-08-01T09:30:11.831Z,2.22
2022-08-01T09:32:57.833Z,2.20
2022-08-01T09:35:29.801Z,2.60
2022-08-01T09:38:17.005Z,2.45
2022-08-01T09:40:58.282Z,2.20
2022-08-01T09:43:28.938Z,2.10
2022-08-01T09:45:58.005Z,2.30
2022-08-01T09:48:28.366Z,2.60
2022-08-01T09:51:04.803Z,2.00
2022-08-01T09:53:52.622Z,2.50
2022-08-01T09:56:22.883Z,2.42
2022-08-01T09:59:10.456Z,2.30
2022-08-01T10:01:50.800Z,2.28
2022-08-01T10:04:20.508Z,2.65
2022-08-01T10:06:57.420Z,2.55
2022-08-01T10:09:35.996Z,2.42
2022-08-01T10:12:15.832Z,2.60
2022-08-01T10:14:46.105Z,2.80
2022-08-01T10:17:18.391Z,2.75
2022-08-01T10:19:47.506Z,2.70
2022-08-01T10:22:18.714Z,2.50
2022-08-01T10:24:48.291Z,2.50
2022-08-01T10:27:24.274Z,2.35
2022-08-01T10:30:19.270Z,2.30
2022-08-01T10:32:53.202Z,2.65
2022-08-01T10:35:45.901Z,2.50
2022-08-01T10:38:13.559Z,2.65
2022-08-01T10:40:43.065Z,2.72
2022-08-01T10:43:21.796Z,2.47
2022-08-01T10:45:51.166Z,2.30
2022-08-01T10:48:40.078Z,2.70
2022-08-01T10:51:18.760Z,2.40
2022-08-01T10:53:54.035Z,2.80
2022-08-01T10:56:27.051Z,2.63
2022-08-01T10:59:06.606Z,2.63
2022-08-01T11:01:44.865Z,2.50
2022-08-01T11:04:17.876Z,2.60
2022-08-01T11:07:07.516Z,2.30
2022-08-01T11:09:45.009Z,3.47
2022-08-01T11:12:23.259Z,2.90
2022-08-01T11:14:59.855Z,2.65
2022-08-01T11:17:42.544Z,2.53
2022-08-01T11:20:15.596Z,2.47
2022-08-01T11:23:03.161Z,2.80
2022-08-01T11:26:05.441Z,2.28
2022-08-01T11:28:36.560Z,2.55
2022-08-01T11:31:11.589Z,2.40
2022-08-01T11:33:46.080Z,2.33
2022-08-01T11:36:15.484Z,2.45
2022-08-01T11:38:44.109Z,2.90
2022-08-01T11:41:38.546Z,2.67
2022-08-01T11:44:10.260Z,2.92
2022-08-01T11:47:07.186Z,2.50
2022-08-01T11:49:48.921Z,2.40
2022-08-01T11:52:30.646Z,2.50
2022-08-01T11:55:02.037Z,2.85
2022-08-01T11:57:35.594Z,2.70
2022-08-01T12:00:15.489Z,2.92
2022-08-01T12:02:46.079Z,3.25
2022-08-01T12:05:16.086Z,2.75
2022-08-01T12:07:45.934Z,3.13
2022-08-01T12:10:17.883Z,2.85
2022-08-01T12:12:50.017Z,2.80
2022-08-01T12:15:18.229Z,2.97
2022-08-01T12:17:57.626Z,2.80
2022-08-01T12:20:31.029Z,2.58
2022-08-01T12:23:02.449Z,3.22
2022-08-01T12:25:30.605Z,2.40
2022-08-01T12:28:04.376Z,2.70
2022-08-01T12:30:32.430Z,3.70
2022-08-01T12:32:59.601Z,2.97
2022-08-01T12:35:29.294Z,3.00
2022-08-01T12:38:14.825Z,2.58
2022-08-01T12:40:45.526Z,2.88
2022-08-01T12:43:21.308Z,2.60
2022-08-01T12:45:59.479Z,3.08
2022-08-01T12:48:27.572Z,2.60
2022-08-01T12:50:58.655Z,2.75
2022-08-01T12:53:26.926Z,2.90
2022-08-01T12:55:58.049Z,2.45
2022-08-01T12:58:35.859Z,2.80
2022-08-01T13:01:09.259Z,3.72
2022-08-01T13:03:36.398Z,2.95
2022-08-01T13:06:16.222Z,2.55
2022-08-01T13:08:44.403Z,3.00
2022-08-01T13:11:16.627Z,2.63
2022-08-01T13:13:49.205Z,2.65
2022-08-01T13:16:30.442Z,2.97
2022-08-01T13:19:07.296Z,2.60
2022-08-01T13:21:53.889Z,2.50
2022-08-01T13:24:30.076Z,2.38
2022-08-01T13:27:01.479Z,2.97
2022-08-01T13:29:39.535Z,3.17
2022-08-01T13:32:29.123Z,2.63
2022-08-01T13:35:06.007Z,2.65
2022-08-01T13:37:33.438Z,2.80
2022-08-01T13:40:00.454Z,2.65
2022-08-01T13:42:27.557Z,2.80
2022-08-01T13:44:54.531Z,2.80
2022-08-01T13:47:31.103Z,2.70
2022-08-01T13:50:03.329Z,2.67
2022-08-01T13:52:31.807Z,2.72
2022-08-01T13:54:59.499Z,2.50
2022-08-01T13:57:36.853Z,2.80
2022-08-01T14:00:09.623Z,3.25
2022-08-01T14:02:39.888Z,2.83
2022-08-01T14:05:07.694Z,3.15
2022-08-01T14:07:34.804Z,3.22
2022-08-01T14:10:17.798Z,3.15
2022-08-01T14:12:46.329Z,2.80
2022-08-01T14:15:15.024Z,3.30
2022-08-01T14:18:01.966Z,3.10
2022-08-01T14:20:29.627Z,3.05
2022-08-01T14:22:56.659Z,3.17
2022-08-01T14:25:57.709Z,2.80
2022-08-01T14:28:11.452Z,3.33
2022-08-01T14:30:38.601Z,3.00
2022-08-01T14:33:05.668Z,4.10
2022-08-01T14:36:01.310Z,3.30
2022-08-01T14:38:31.749Z,3.05
2022-08-01T14:41:03.786Z,2.80
2022-08-01T14:43:33.586Z,3.58
2022-08-01T14:46:02.252Z,3.17
2022-08-01T14:48:30.358Z,2.80
2022-08-01T14:50:58.575Z,2.95
2022-08-01T14:53:25.873Z,3.55
2022-08-01T14:55:52.939Z,2.85
2022-08-01T14:58:19.985Z,2.80
2022-08-01T15:00:47.106Z,2.80
2022-08-01T15:03:14.369Z,2.67
2022-08-01T15:05:41.532Z,2.80
2022-08-01T15:08:08.814Z,2.53
2022-08-01T15:10:36.043Z,2.92
2022-08-01T15:13:03.033Z,2.70
2022-08-01T15:15:30.297Z,2.67
2022-08-01T15:17:57.909Z,2.95
2022-08-01T15:20:25.738Z,2.80
2022-08-01T15:22:53.854Z,2.70
2022-08-01T15:25:21.587Z,3.03
2022-08-01T15:27:48.767Z,6.97
2022-08-01T15:30:15.965Z,3.63
2022-08-01T15:32:43.117Z,3.40
2022-08-01T15:35:11.454Z,2.90
2022-08-01T15:37:42.782Z,3.05
2022-08-01T15:40:12.545Z,2.90
2022-08-01T15:42:39.915Z,2.90
2022-08-01T15:45:10.704Z,3.22
2022-08-01T15:47:40.536Z,3.08
2022-08-01T15:50:08.132Z,3.70
2022-08-01T15:52:35.274Z,3.17
2022-08-01T15:55:02.517Z,2.95
2022-08-01T15:57:30.623Z,2.72
2022-08-01T15:59:57.866Z,3.30
2022-08-01T16:02:24.912Z,3.30
2022-08-01T16:04:51.928Z,3.05
2022-08-01T16:07:18.903Z,4.32
2022-08-01T16:09:45.872Z,5.07
2022-08-01T16:12:12.890Z,3.58
2022-08-01T16:14:39.926Z,3.35
2022-08-01T16:17:06.985Z,3.65
2022-08-01T16:19:33.948Z,3.17
2022-08-01T16:22:00.903Z,2.90
2022-08-01T16:24:31.207Z,3.33
2022-08-01T16:26:58.189Z,3.20
2022-08-01T16:29:33.059Z,2.90
2022-08-01T16:32:27.413Z,4.57
2022-08-01T16:34:47.143Z,3.53
2022-08-01T16:37:15.515Z,3.45
2022-08-01T16:39:42.671Z,2.90
2022-08-01T16:42:09.887Z,3.40
2022-08-01T16:44:38.067Z,3.10
2022-08-01T16:47:05.902Z,3.63
2022-08-01T16:49:33.270Z,3.15
2022-08-01T16:52:00.412Z,3.67
2022-08-01T16:54:28.084Z,3.63
2022-08-01T16:56:58.147Z,3.55
2022-08-01T16:59:41.860Z,3.58
2022-08-01T17:02:10.807Z,3.83
2022-08-01T17:04:38.066Z,3.22
2022-08-01T17:07:05.526Z,3.50
2022-08-01T17:09:32.940Z,3.58
2022-08-01T17:11:59.977Z,3.42
2022-08-01T17:14:28.671Z,3.60
2022-08-01T17:16:55.667Z,3.45
2022-08-01T17:19:26.926Z,3.88
2022-08-01T17:22:00.351Z,4.00
2022-08-01T17:24:27.497Z,3.92
2022-08-01T17:26:54.551Z,4.07
2022-08-01T17:29:21.528Z,3.78
2022-08-01T17:31:48.887Z,4.28
2022-08-01T17:34:15.941Z,4.45
2022-08-01T17:36:43.023Z,4.60
2022-08-01T17:39:12.414Z,4.90
2022-08-01T17:41:40.580Z,3.90
2022-08-01T17:44:08.341Z,4.03
2022-08-01T17:46:35.608Z,3.85
2022-08-01T17:49:02.713Z,5.00
2022-08-01T17:51:30.806Z,3.70
2022-08-01T17:53:58.219Z,3.75
2022-08-01T17:56:26.792Z,3.80
2022-08-01T17:58:53.879Z,3.95
2022-08-01T18:01:21.670Z,3.65
2022-08-01T18:03:53.911Z,3.72
2022-08-01T18:06:23.485Z,3.42
2022-08-01T18:08:53.125Z,3.20
2022-08-01T18:11:23.277Z,3.35
2022-08-01T18:13:51.927Z,4.32
2022-08-01T18:16:19.264Z,4.32
2022-08-01T18:18:46.286Z,4.00
2022-08-01T18:21:13.615Z,4.15
2022-08-01T18:23:44.220Z,4.55
2022-08-01T18:26:18.520Z,4.30
2022-08-01T18:28:46.679Z,3.85
2022-08-01T18:31:17.037Z,4.28
2022-08-01T18:33:44.894Z,3.60
2022-08-01T18:36:14.155Z,4.10
2022-08-01T18:39:00.519Z,4.72
2022-08-01T18:41:28.921Z,4.85
2022-08-01T18:44:05.365Z,3.97
2022-08-01T18:46:37.238Z,4.30
2022-08-01T18:49:07.037Z,3.92
2022-08-01T18:51:34.250Z,4.00
2022-08-01T18:54:01.407Z,4.15
2022-08-01T18:56:28.514Z,3.92
2022-08-01T18:58:55.838Z,4.13
2022-08-01T19:01:22.979Z,4.50
2022-08-01T19:03:50.092Z,4.40
2022-08-01T19:06:17.111Z,4.03
2022-08-01T19:08:46.060Z,4.05
2022-08-01T19:11:13.505Z,4.53
2022-08-01T19:13:40.821Z,4.40
2022-08-01T19:16:07.909Z,4.20
2022-08-01T19:18:35.005Z,4.45
2022-08-01T19:21:07.015Z,4.25
2022-08-01T19:23:53.690Z,4.05
2022-08-01T19:26:23.747Z,4.45
2022-08-01T19:28:56.064Z,4.97
2022-08-01T19:31:27.724Z,5.35
2022-08-01T19:33:57.560Z,4.00
2022-08-01T19:36:24.783Z,4.47
2022-08-01T19:38:51.851Z,4.40
2022-08-01T19:41:19.636Z,4.80
2022-08-01T19:43:48.036Z,6.20
2022-08-01T19:46:18.192Z,5.63
2022-08-01T19:48:51.476Z,4.90
2022-08-01T19:51:22.645Z,5.15
2022-08-01T19:54:04.910Z,4.57
2022-08-01T19:56:39.742Z,4.40
2022-08-01T19:59:08.382Z,3.70
2022-08-01T20:01:37.255Z,3.50
2022-08-01T20:04:06.391Z,4.50
2022-08-01T20:06:35.416Z,3.90
2022-08-01T20:09:04.027Z,4.43
2022-08-01T20:11:31.119Z,4.38
2022-08-01T20:13:58.440Z,4.20
2022-08-01T20:16:25.620Z,3.33
2022-08-01T20:18:52.667Z,3.60
2022-08-01T20:21:20.444Z,4.47
2022-08-01T20:23:49.965Z,3.90
2022-08-01T20:26:18.191Z,3.55
2022-08-01T20:28:47.620Z,3.92
2022-08-01T20:31:16.588Z,3.78
2022-08-01T20:33:47.479Z,3.63
2022-08-01T20:36:24.983Z,3.80
2022-08-01T20:38:56.881Z,3.63
2022-08-01T20:41:28.208Z,3.47
2022-08-01T20:43:57.255Z,3.80
2022-08-01T20:46:28.834Z,3.45
2022-08-01T20:48:58.545Z,3.88
2022-08-01T20:51:27.664Z,3.72
2022-08-01T20:53:56.355Z,3.72
2022-08-01T20:56:42.943Z,4.30
2022-08-01T20:59:39.720Z,3.83
2022-08-01T21:02:54.547Z,4.38
2022-08-01T21:05:30.409Z,3.55
2022-08-01T21:08:11.736Z,3.72
2022-08-01T21:10:44.305Z,4.25
2022-08-01T21:13:21.365Z,4.25
2022-08-01T21:16:22.829Z,4.40
2022-08-01T21:19:19.646Z,3.97
2022-08-01T21:22:27.229Z,3.88
2022-08-01T21:25:00.959Z,3.97
2022-08-01T21:27:33.203Z,4.00
2022-08-01T21:30:04.334Z,3.92
2022-08-01T21:32:34.414Z,3.80
2022-08-01T21:35:03.765Z,4.07
2022-08-01T21:37:31.770Z,4.15
2022-08-01T21:40:02.752Z,4.00
2022-08-01T21:42:40.288Z,4.30
2022-08-01T21:45:09.736Z,3.80
2022-08-01T21:47:37.495Z,3.92
2022-08-01T21:50:05.091Z,3.85
2022-08-01T21:52:52.267Z,3.90
2022-08-01T21:55:35.479Z,3.65
2022-08-01T21:58:40.390Z,4.00
2022-08-01T22:01:13.770Z,3.90
2022-08-01T22:03:47.616Z,3.58
2022-08-01T22:06:16.356Z,3.90
2022-08-01T22:08:52.821Z,3.83
2022-08-01T22:11:25.170Z,3.88
2022-08-01T22:14:00.165Z,3.67
2022-08-01T22:16:31.649Z,3.90
2022-08-01T22:19:04.382Z,4.00
2022-08-01T22:21:33.149Z,4.40
2022-08-01T22:24:00.858Z,4.03
2022-08-01T22:26:29.482Z,4.07
2022-08-01T22:28:57.166Z,4.65
2022-08-01T22:31:24.431Z,4.25
2022-08-01T22:33:52.123Z,4.50
2022-08-01T22:36:20.153Z,4.50
2022-08-01T22:38:47.230Z,4.40
2022-08-01T22:41:21.643Z,4.88
2022-08-01T22:44:09.852Z,4.53
2022-08-01T22:46:37.331Z,4.43
2022-08-01T22:49:46.933Z,4.45
2022-08-01T22:52:25.664Z,4.75
2022-08-01T22:54:59.982Z,4.32
2022-08-01T22:57:35.636Z,4.10
2022-08-01T23:00:07.557Z,4.35
2022-08-01T23:02:40.024Z,4.05
2022-08-01T23:05:08.451Z,3.95
2022-08-01T23:07:56.560Z,4.63
2022-08-01T23:10:25.892Z,4.07
2022-08-01T23:12:54.623Z,4.15
2022-08-01T23:15:25.204Z,4.45
2022-08-01T23:17:53.460Z,4.18
2022-08-01T23:20:21.553Z,4.80
2022-08-01T23:22:51.305Z,4.10
2022-08-01T23:25:18.480Z,4.32
2022-08-01T23:27:54.113Z,4.05
2022-08-01T23:30:33.350Z,4.25
2022-08-01T23:33:00.526Z,4.30
2022-08-01T23:35:29.262Z,4.03
2022-08-01T23:37:58.627Z,3.90
2022-08-01T23:40:34.951Z,3.85
2022-08-01T23:43:03.770Z,4.18
2022-08-01T23:45:38.266Z,4.28
2022-08-01T23:48:18.369Z,3.85
2022-08-01T23:50:45.332Z,4.38
2022-08-01T23:53:12.763Z,3.92
2022-08-01T23:55:40.670Z,4.07
2022-08-01T23:58:11.163Z,4.25
